Forside
METAR-TAF:

METAR-TAF

Lufthavne :

Fond Du Lac County Airport

Fond du Lac, Wisconsin, USA

Breddekreds: 43-46-12N, længdekreds: 088-29-11W, højde: 246 m

Aktuelle vejr

Denne rapport blev lavet for 40 minutter siden, kl. 20:53 UTC
Vind 4 kt fra varierende retninger
Temperatur 15°C
Fugtighed 39%
Tryk 1019 hPa
Sigt: 16.1 km
Brudte skyer i en højde af 6500 ft

METAR: KFLD 052053Z AUTO VRB04KT 10SM BKN065 15/01 A3009 RMK AO2 SLP195 T01500011 56010

Tid: 16:33 (21:33 UTC)


TAF: fraværende

Vejrobservationer og prognoser fra mere end 4000 lufthavne (METAR og TAF).

De gule og røde prikker repræsenterer de meteorologiske stationer.

Flyt musen over at se navnet på stationen.

Så klik over at se vejr observationer og prognoser.

At skifte det kort: Klik på de grønne knapper med et sort kors for at zoome ind; på den grønne knap med en bindestreg for at zoome ud; eller på de grønne pile for tilstødende kort.


METAR-TAF: